Time;durP1;ratioP1;P1;durP2;ratioP2;P2;SDS_P1;SDS_P2;PMS_P1;PMS_P2;Temp;Humidity;BMP_temperature;BMP_pressure;BME280_temperature;BME280_humidity;BME280_pressure;Samples;Min_cycle;Max_cycle;Signal;HPM_P1;HPM_P2
2023/01/14 00:00:36;;;;;;;16.05;5.50;;;;;;;5.93;100.00;101017.47;10484109;28;20047;-74
2023/01/14 00:05:37;;;;;;;21.63;6.10;;;;;;;5.81;100.00;101026.38;10470250;28;20182;-72
2023/01/14 00:10:37;;;;;;;13.30;6.25;;;;;;;5.72;100.00;101038.59;10501101;28;20647;-75
2023/01/14 00:15:38;;;;;;;13.32;6.80;;;;;;;5.36;100.00;100977.22;10499438;28;20033;-75
2023/01/14 00:20:38;;;;;;;25.15;8.63;;;;;;;5.70;100.00;101054.38;10501634;28;20054;-72
2023/01/14 00:25:38;;;;;;;15.60;6.25;;;;;;;5.75;100.00;101060.03;10484330;28;20033;-75
2023/01/14 00:30:41;;;;;;;20.58;6.78;;;;;;;5.85;100.00;101054.94;10482791;28;20422;-74
2023/01/14 00:35:41;;;;;;;23.52;7.65;;;;;;;5.96;100.00;101063.53;10476340;28;20044;-74
2023/01/14 00:40:42;;;;;;;29.27;8.10;;;;;;;5.94;100.00;101050.03;10500927;28;20037;-74
2023/01/14 00:45:42;;;;;;;21.75;7.85;;;;;;;6.01;100.00;101042.66;10499060;28;20028;-74
2023/01/14 00:50:42;;;;;;;17.42;7.40;;;;;;;5.93;100.00;101047.53;10501073;28;20036;-74
2023/01/14 00:55:43;;;;;;;23.27;8.35;;;;;;;5.86;100.00;101045.66;10501523;28;20047;-74
2023/01/14 01:00:44;;;;;;;21.75;7.80;;;;;;;5.99;100.00;101054.88;10498790;28;20374;-75
2023/01/14 01:05:45;;;;;;;19.95;7.85;;;;;;;6.03;100.00;101067.88;10497841;28;20090;-74
2023/01/14 01:10:49;;;;;;;19.90;6.70;;;;;;;6.06;100.00;101064.72;10485916;28;20071;-74
2023/01/14 01:15:50;;;;;;;16.95;6.55;;;;;;;6.04;100.00;101076.94;10498743;28;20082;-74
2023/01/14 01:20:50;;;;;;;19.70;6.55;;;;;;;6.02;100.00;101081.78;10483424;28;20091;-74
2023/01/14 01:26:01;;;;;;;29.10;7.68;;;;;;;6.06;100.00;101083.03;10468015;28;20043;-76
2023/01/14 01:31:11;;;;;;;26.95;7.07;;;;;;;6.12;100.00;101093.09;10476856;28;20459;-74
2023/01/14 01:36:22;;;;;;;17.70;6.43;;;;;;;6.15;100.00;101089.06;10493812;28;20444;-74
2023/01/14 01:41:30;;;;;;;20.10;5.10;;;;;;;6.17;100.00;101085.03;10495772;28;20576;-73
2023/01/14 01:46:31;;;;;;;15.57;5.78;;;;;;;6.20;100.00;101084.63;10487372;28;20041;-73
2023/01/14 01:51:33;;;;;;;28.25;6.82;;;;;;;6.21;100.00;101079.97;10485828;28;20045;-74
2023/01/14 01:56:35;;;;;;;20.52;5.57;;;;;;;6.13;100.00;101067.41;10468514;28;20045;-74
2023/01/14 02:01:36;;;;;;;14.98;6.00;;;;;;;6.10;100.00;101084.25;10497056;28;20044;-73
2023/01/14 02:06:36;;;;;;;17.33;5.35;;;;;;;6.05;100.00;101095.00;10486211;28;20535;-73
2023/01/14 02:11:42;;;;;;;22.88;7.35;;;;;;;5.96;100.00;101099.06;10480620;28;20100;-73
2023/01/14 02:16:56;;;;;;;22.67;5.93;;;;;;;5.83;100.00;101106.22;10500166;28;20029;-76
2023/01/14 02:22:35;;;;;;;18.90;5.03;;;;;;;5.80;100.00;101101.19;10484747;28;20132;-73
2023/01/14 02:27:45;;;;;;;14.68;5.28;;;;;;;5.85;100.00;101093.19;10504793;28;20040;-73
2023/01/14 02:33:03;;;;;;;22.65;5.45;;;;;;;5.88;100.00;101091.06;10492849;28;20737;-73
2023/01/14 02:38:22;;;;;;;16.98;5.80;;;;;;;5.95;100.00;101095.47;10504902;28;20052;-73
2023/01/14 02:48:50;;;;;;;22.50;6.10;;;;;;;5.97;100.00;101070.66;10464410;28;20045;-73
2023/01/14 02:53:51;;;;;;;28.67;5.28;;;;;;;6.06;100.00;101088.50;10446281;28;20055;-74
2023/01/14 02:59:18;;;;;;;17.58;5.30;;;;;;;6.00;100.00;101071.06;10463277;28;20048;-73
2023/01/14 03:04:36;;;;;;;22.05;4.70;;;;;;;5.84;100.00;101061.44;10440401;28;20048;-73
2023/01/14 03:09:55;;;;;;;17.73;4.28;;;;;;;5.63;100.00;101070.78;10462865;28;20036;-73
2023/01/14 03:15:38;;;;;;;34.70;8.50;;;;;;;5.61;100.00;101064.72;10464385;28;20052;-73
2023/01/14 03:20:41;;;;;;;19.80;5.15;;;;;;;5.63;100.00;101067.22;10449550;28;20037;-73
2023/01/14 03:25:43;;;;;;;22.73;5.50;;;;;;;5.51;100.00;101055.31;10446711;28;20063;-73
2023/01/14 03:30:47;;;;;;;19.13;5.00;;;;;;;5.45;100.00;101063.28;10489469;28;20044;-73
2023/01/14 03:35:47;;;;;;;22.60;5.88;;;;;;;5.37;100.00;101054.50;10478336;28;20048;-73
2023/01/14 03:40:49;;;;;;;21.77;6.72;;;;;;;5.36;100.00;101059.13;10468666;28;20037;-73
2023/01/14 03:45:49;;;;;;;19.67;6.88;;;;;;;5.28;100.00;101053.09;10443655;28;20059;-73
2023/01/14 03:51:11;;;;;;;26.38;5.82;;;;;;;5.21;100.00;101043.03;10460662;28;20039;-73
2023/01/14 03:56:20;;;;;;;20.65;5.30;;;;;;;5.14;100.00;101025.81;10444702;28;20033;-73
2023/01/14 04:01:27;;;;;;;25.60;5.53;;;;;;;5.09;100.00;101033.00;10458647;28;20084;-73
2023/01/14 04:06:28;;;;;;;16.02;5.43;;;;;;;5.05;100.00;101030.69;10443354;28;20041;-73
2023/01/14 04:11:28;;;;;;;21.80;5.57;;;;;;;4.97;100.00;101022.72;10442902;28;20033;-74
2023/01/14 04:16:29;;;;;;;20.75;6.00;;;;;;;4.92;100.00;101033.44;10443835;28;20041;-73
2023/01/14 04:21:29;;;;;;;26.30;7.20;;;;;;;4.91;100.00;101026.31;10462293;28;20045;-72
2023/01/14 04:26:30;;;;;;;28.30;6.95;;;;;;;4.92;100.00;101041.63;10461847;28;20045;-74
2023/01/14 04:31:30;;;;;;;23.27;4.72;;;;;;;4.94;100.00;101055.91;10500851;28;20032;-75
2023/01/14 04:36:31;;;;;;;24.80;5.07;;;;;;;4.96;100.00;101047.47;10459849;28;20033;-73
2023/01/14 04:46:50;;;;;;;17.88;4.90;;;;;;;5.11;100.00;101012.63;10461594;28;20052;-72
2023/01/14 04:51:51;;;;;;;14.52;5.25;;;;;;;5.07;100.00;101014.09;10459539;28;20037;-73
2023/01/14 04:56:51;;;;;;;23.17;5.18;;;;;;;5.10;100.00;101001.91;10461069;28;20039;-73
2023/01/14 05:01:52;;;;;;;22.48;5.13;;;;;;;5.12;100.00;101005.25;10457532;28;20151;-73
2023/01/14 05:06:54;;;;;;;22.23;4.72;;;;;;;5.04;100.00;100999.00;10493501;28;20135;-74
2023/01/14 05:11:54;;;;;;;15.57;3.63;;;;;;;4.97;100.00;100984.53;10499597;28;20404;-72
2023/01/14 05:16:55;;;;;;;13.38;4.10;;;;;;;4.91;100.00;100985.38;10484438;28;20055;-73
2023/01/14 05:21:55;;;;;;;12.38;3.78;;;;;;;4.91;100.00;100990.00;10459717;28;20041;-74
2023/01/14 05:26:56;;;;;;;25.90;4.88;;;;;;;4.87;100.00;100984.13;10458735;28;20063;-74
2023/01/14 05:31:56;;;;;;;15.73;4.25;;;;;;;4.84;100.00;100960.03;10459560;28;20044;-74
2023/01/14 05:36:57;;;;;;;20.58;5.65;;;;;;;4.78;100.00;100955.41;10458981;28;20044;-71
2023/01/14 05:47:16;;;;;;;19.25;5.65;;;;;;;4.76;100.00;100935.72;10501208;28;20032;-72
2023/01/14 05:52:17;;;;;;;25.27;6.45;;;;;;;4.70;100.00;100914.75;10503610;28;20033;-75
2023/01/14 05:57:17;;;;;;;29.35;5.65;;;;;;;4.79;100.00;100914.28;10508293;28;20044;-74
2023/01/14 06:07:37;;;;;;;23.17;6.30;;;;;;;4.84;100.00;100895.38;10487814;28;20052;-73
2023/01/14 06:12:57;;;;;;;27.75;8.05;;;;;;;4.86;100.00;100900.63;10466975;28;20044;-73
2023/01/14 06:18:08;;;;;;;21.52;5.35;;;;;;;4.87;100.00;100883.19;10466613;28;20045;-73
2023/01/14 06:23:09;;;;;;;31.02;8.05;;;;;;;4.84;100.00;100870.84;10466272;28;20040;-74
2023/01/14 06:28:09;;;;;;;24.30;7.93;;;;;;;4.81;100.00;100868.53;10463968;28;20037;-74
2023/01/14 06:33:10;;;;;;;21.52;7.45;;;;;;;4.78;100.00;100868.13;10463723;28;20110;-73
2023/01/14 06:38:11;;;;;;;26.33;8.95;;;;;;;4.75;100.00;100860.38;10465131;28;20044;-74
2023/01/14 06:43:12;;;;;;;28.15;9.63;;;;;;;4.74;100.00;100845.06;10447038;28;20388;-73
2023/01/14 06:48:12;;;;;;;23.15;8.68;;;;;;;4.73;100.00;100830.59;10464931;28;20068;-73
2023/01/14 06:53:12;;;;;;;26.98;7.95;;;;;;;4.75;100.00;100809.38;10464644;28;20041;-74
2023/01/14 06:58:13;;;;;;;29.95;8.88;;;;;;;4.71;100.00;100804.59;10462671;28;20416;-74
2023/01/14 07:03:13;;;;;;;29.17;7.63;;;;;;;4.67;100.00;100808.81;10447392;28;20506;-73
2023/01/14 07:08:14;;;;;;;29.52;7.68;;;;;;;4.67;100.00;100789.72;10506390;28;20476;-72
2023/01/14 07:13:16;;;;;;;27.00;8.07;;;;;;;4.65;100.00;100781.75;10504659;28;20040;-73
2023/01/14 07:18:16;;;;;;;32.25;11.18;;;;;;;4.64;100.00;100786.38;10486927;28;20047;-74
2023/01/14 07:23:16;;;;;;;41.33;11.25;;;;;;;4.65;100.00;100755.34;10504192;28;20047;-73
2023/01/14 07:28:17;;;;;;;37.20;8.13;;;;;;;4.58;100.00;100745.50;10504379;28;20049;-74
2023/01/14 07:33:18;;;;;;;33.20;9.95;;;;;;;4.71;100.00;100759.06;10490539;28;20037;-74
2023/01/14 07:38:19;;;;;;;30.70;8.13;;;;;;;4.76;100.00;100750.25;10471421;28;20047;-73
2023/01/14 07:43:19;;;;;;;25.58;7.47;;;;;;;4.80;100.00;100746.03;10504161;28;20037;-74
2023/01/14 07:48:20;;;;;;;21.00;8.00;;;;;;;4.82;100.00;100733.00;10503669;28;20032;-74
2023/01/14 07:53:20;;;;;;;35.55;9.57;;;;;;;4.82;100.00;100716.63;10503534;28;20032;-73
2023/01/14 07:58:23;;;;;;;35.17;9.35;;;;;;;4.84;100.00;100700.88;10503032;28;20040;-74
2023/01/14 08:03:23;;;;;;;24.95;7.57;;;;;;;4.92;100.00;100686.13;10502136;28;20037;-74
2023/01/14 08:08:24;;;;;;;25.60;9.50;;;;;;;4.98;100.00;100674.31;10503897;28;20040;-73
2023/01/14 08:13:24;;;;;;;28.27;10.65;;;;;;;4.87;100.00;100643.16;10503257;28;20024;-72
2023/01/14 08:18:25;;;;;;;36.22;8.98;;;;;;;4.99;100.00;100657.72;10483784;28;20045;-73
2023/01/14 08:23:25;;;;;;;31.75;8.35;;;;;;;5.03;100.00;100631.66;10502797;28;20048;-74
2023/01/14 08:28:26;;;;;;;34.08;10.25;;;;;;;5.07;100.00;100625.78;10500519;28;20400;-73
2023/01/14 08:33:27;;;;;;;39.22;11.23;;;;;;;5.09;100.00;100615.47;10487934;28;20037;-73
2023/01/14 08:38:27;;;;;;;46.97;9.57;;;;;;;5.10;100.00;100598.84;10473122;28;20044;-75
2023/01/14 08:43:27;;;;;;;33.35;9.32;;;;;;;5.13;100.00;100589.41;10501729;28;20373;-73
2023/01/14 08:48:28;;;;;;;33.55;9.32;;;;;;;5.20;100.00;100571.88;10501768;28;20036;-73
2023/01/14 08:53:29;;;;;;;31.05;8.70;;;;;;;5.22;100.00;100567.03;10500194;28;20032;-77
2023/01/14 08:58:29;;;;;;;27.50;8.38;;;;;;;5.20;100.00;100552.78;10501614;28;20399;-77
2023/01/14 09:03:30;;;;;;;27.67;9.30;;;;;;;5.20;100.00;100541.03;10500186;28;20036;-76
2023/01/14 09:19:08;;;;;;;27.00;10.25;;;;;;;5.23;100.00;100511.41;10501524;28;20041;-76
2023/01/14 09:24:09;;;;;;;38.58;8.70;;;;;;;5.25;100.00;100503.00;10499507;28;20033;-77
2023/01/14 09:29:09;;;;;;;24.88;8.82;;;;;;;5.22;100.00;100481.59;10478588;28;20037;-76
2023/01/14 09:34:10;;;;;;;42.47;9.30;;;;;;;5.23;100.00;100472.38;10466772;28;20037;-77
2023/01/14 09:39:10;;;;;;;38.20;9.95;;;;;;;5.25;100.00;100449.25;10466286;28;20037;-76
2023/01/14 09:44:11;;;;;;;34.25;8.75;;;;;;;5.20;100.00;100418.22;10467733;28;20040;-76
2023/01/14 09:49:16;;;;;;;23.67;8.68;;;;;;;5.31;100.00;100411.97;10472194;28;20037;-76
2023/01/14 09:54:42;;;;;;;27.77;8.63;;;;;;;5.31;100.00;100389.31;10484155;28;20112;-76
2023/01/14 09:59:57;;;;;;;24.93;8.93;;;;;;;5.30;100.00;100380.31;10485683;28;20067;-76
2023/01/14 10:05:40;;;;;;;13.73;7.40;;;;;;;5.35;100.00;100350.41;10484626;28;20279;-77
2023/01/14 10:10:44;;;;;;;27.45;9.00;;;;;;;5.34;100.00;100306.97;10395859;28;20038;-75
2023/01/14 10:15:55;;;;;;;22.92;7.80;;;;;;;5.44;100.00;100301.78;10432551;28;20508;-75
2023/01/14 10:21:00;;;;;;;17.73;9.20;;;;;;;5.43;100.00;100286.44;10485989;28;20043;-76
2023/01/14 10:26:01;;;;;;;23.60;8.88;;;;;;;5.47;100.00;100260.34;10485917;28;20064;-77
2023/01/14 10:31:02;;;;;;;27.83;9.32;;;;;;;5.47;100.00;100238.50;10482135;28;20040;-76
2023/01/14 10:36:04;;;;;;;26.73;10.75;;;;;;;5.47;100.00;100203.00;10482860;28;20040;-77
2023/01/14 10:41:05;;;;;;;31.52;11.90;;;;;;;5.55;100.00;100186.28;10469315;28;20176;-77
2023/01/14 10:46:05;;;;;;;29.02;12.82;;;;;;;5.57;100.00;100150.56;10504959;28;20056;-76
2023/01/14 10:51:32;;;;;;;37.92;14.95;;;;;;;5.58;100.00;100169.44;10507633;28;20037;-76
2023/01/14 10:56:33;;;;;;;20.48;11.43;;;;;;;5.63;100.00;100127.75;10491084;28;20037;-77
2023/01/14 11:01:40;;;;;;;29.10;12.38;;;;;;;5.60;100.00;100089.97;10482389;28;20056;-74
2023/01/14 11:06:40;;;;;;;16.10;10.82;;;;;;;5.71;100.00;100091.88;10486517;28;20044;-77
2023/01/14 11:11:42;;;;;;;21.88;12.07;;;;;;;5.77;100.00;100084.63;10504070;28;20028;-77
2023/01/14 11:16:42;;;;;;;14.80;10.13;;;;;;;5.87;100.00;100076.63;10488268;28;20041;-79
2023/01/14 11:21:44;;;;;;;15.85;11.10;;;;;;;5.89;100.00;100051.78;10504602;28;20036;-77
2023/01/14 11:26:45;;;;;;;18.02;11.23;;;;;;;6.09;100.00;100016.69;10486655;28;20040;-77
2023/01/14 11:31:45;;;;;;;17.83;11.30;;;;;;;6.18;100.00;99985.16;10486390;28;20048;-76
2023/01/14 11:36:46;;;;;;;15.95;9.75;;;;;;;6.18;100.00;99968.75;10460252;28;20119;-76
2023/01/14 11:41:46;;;;;;;14.55;10.55;;;;;;;6.22;100.00;99942.59;10478742;28;20094;-78
2023/01/14 11:47:01;;;;;;;13.20;9.70;;;;;;;6.25;100.00;99917.47;10481611;28;20048;-79
2023/01/14 11:52:03;;;;;;;10.57;9.13;;;;;;;6.18;100.00;99884.03;10481428;28;20431;-78
2023/01/14 11:57:15;;;;;;;10.90;9.75;;;;;;;5.84;100.00;99828.53;10479991;28;20044;-78
2023/01/14 12:02:27;;;;;;;16.60;8.57;;;;;;;6.25;100.00;99849.13;10477749;28;20609;-77
2023/01/14 12:07:35;;;;;;;18.35;10.63;;;;;;;6.31;100.00;99816.44;10474565;28;20040;-77
2023/01/14 12:18:04;;;;;;;11.02;8.23;;;;;;;6.32;100.00;99766.13;10481065;28;20055;-78
2023/01/14 12:23:08;;;;;;;10.60;8.25;;;;;;;6.31;100.00;99743.44;10500466;28;20518;-77
2023/01/14 12:28:13;;;;;;;13.63;8.50;;;;;;;6.33;100.00;99722.16;10484263;28;20036;-78
2023/01/14 12:33:16;;;;;;;14.80;8.07;;;;;;;6.35;100.00;99702.75;10490422;28;20060;-79
2023/01/14 12:49:04;;;;;;;15.73;9.57;;;;;;;6.37;100.00;99616.69;10474825;28;20645;-79
2023/01/14 12:54:06;;;;;;;13.82;9.52;;;;;;;6.49;100.00;99607.47;10462725;28;20496;-80
2023/01/14 12:59:29;;;;;;;10.88;8.60;;;;;;;6.51;100.00;99577.97;10461094;28;20037;-82
2023/01/14 13:04:34;;;;;;;10.75;9.65;;;;;;;6.55;100.00;99559.97;10464662;28;20097;-70
2023/01/14 13:09:46;;;;;;;17.25;9.60;;;;;;;6.61;100.00;99542.50;10476594;28;20051;-81
2023/01/14 13:14:50;;;;;;;11.10;9.75;;;;;;;6.70;100.00;99529.19;10477997;28;20028;-81
2023/01/14 13:19:52;;;;;;;12.02;9.02;;;;;;;6.79;100.00;99511.22;10469849;28;20124;-79
2023/01/14 13:25:10;;;;;;;10.10;9.27;;;;;;;6.87;100.00;99502.50;10439622;28;20049;-77
2023/01/14 13:30:17;;;;;;;9.18;8.27;;;;;;;6.93;100.00;99492.44;10464469;28;20124;-82
2023/01/14 13:35:19;;;;;;;8.77;7.90;;;;;;;7.00;100.00;99474.69;10491390;28;20048;-82
2023/01/14 13:40:19;;;;;;;8.57;7.93;;;;;;;7.14;100.00;99475.03;10456822;28;20048;-82
2023/01/14 13:45:24;;;;;;;8.15;7.38;;;;;;;7.24;100.00;99458.66;10471280;28;20048;-80
2023/01/14 13:50:27;;;;;;;6.55;6.13;;;;;;;7.31;100.00;99432.94;10462509;28;20062;-83
2023/01/14 13:55:32;;;;;;;7.05;5.57;;;;;;;7.37;100.00;99418.19;10461094;28;20047;-79
2023/01/14 14:00:37;;;;;;;6.13;5.38;;;;;;;7.45;100.00;99415.75;10454502;28;20041;-80
2023/01/14 14:05:38;;;;;;;5.82;5.32;;;;;;;7.51;100.00;99399.34;10481320;28;20044;-79
2023/01/14 14:10:40;;;;;;;5.63;5.22;;;;;;;7.62;100.00;99393.59;10482143;28;20039;-78
2023/01/14 14:15:52;;;;;;;5.45;5.05;;;;;;;7.64;100.00;99371.41;10466582;28;20502;-81
2023/01/14 14:20:52;;;;;;;5.38;4.97;;;;;;;7.78;100.00;99379.94;10486300;28;20036;-79
2023/01/14 14:25:53;;;;;;;5.65;4.80;;;;;;;7.83;100.00;99378.03;10484205;28;20033;-78
2023/01/14 14:31:05;;;;;;;5.55;5.15;;;;;;;7.93;100.00;99359.94;10482103;28;20036;-80
2023/01/14 14:36:12;;;;;;;5.10;4.80;;;;;;;7.98;100.00;99351.69;10476103;28;20025;-79
2023/01/14 14:41:15;;;;;;;5.80;5.10;;;;;;;8.05;100.00;99353.06;10505185;28;20135;-79
2023/01/14 14:46:22;;;;;;;5.20;4.90;;;;;;;8.03;100.00;99344.31;10472677;28;20045;-81
2023/01/14 14:51:29;;;;;;;5.75;5.43;;;;;;;8.19;100.00;99333.34;10486617;28;20037;-80
2023/01/14 14:56:30;;;;;;;5.43;5.07;;;;;;;8.21;100.00;99329.22;10478344;28;20059;-78
2023/01/14 15:01:35;;;;;;;5.47;5.18;;;;;;;8.24;100.00;99322.34;10477831;28;20037;-78
2023/01/14 15:06:35;;;;;;;5.60;5.30;;;;;;;8.20;100.00;99293.84;10482027;28;20056;-77
2023/01/14 15:11:43;;;;;;;5.60;5.20;;;;;;;8.29;100.00;99306.72;10483289;28;20033;-79
2023/01/14 15:16:49;;;;;;;5.78;5.43;;;;;;;8.32;100.00;99307.28;10482213;28;20032;-79
2023/01/14 15:21:50;;;;;;;6.00;5.50;;;;;;;8.28;100.00;99283.13;10482597;28;20040;-79
2023/01/14 15:26:55;;;;;;;5.60;5.20;;;;;;;8.37;100.00;99299.03;10449254;28;20068;-81
2023/01/14 15:31:56;;;;;;;5.63;5.32;;;;;;;8.41;100.00;99283.69;10479586;28;20048;-76
2023/01/14 15:36:59;;;;;;;5.10;4.80;;;;;;;8.40;100.00;99271.88;10478652;28;20036;-79
2023/01/14 15:42:05;;;;;;;5.25;4.95;;;;;;;8.31;100.00;99259.00;10484256;28;20041;-79
2023/01/14 15:47:06;;;;;;;5.28;4.97;;;;;;;8.41;100.00;99261.75;10464830;28;20044;-78
2023/01/14 15:52:28;;;;;;;5.40;5.00;;;;;;;8.50;100.00;99271.06;10454969;28;20047;-78
2023/01/14 15:57:28;;;;;;;5.45;5.15;;;;;;;8.50;100.00;99254.59;10481370;28;20104;-80
2023/01/14 16:02:29;;;;;;;5.20;4.90;;;;;;;8.55;100.00;99256.50;10496933;28;20040;-79
2023/01/14 16:07:29;;;;;;;5.80;5.50;;;;;;;8.53;100.00;99234.81;10500079;28;20085;-80
2023/01/14 16:12:30;;;;;;;6.22;5.82;;;;;;;8.61;100.00;99244.41;10498892;28;20036;-77
2023/01/14 16:17:30;;;;;;;5.97;5.68;;;;;;;8.50;100.00;99221.69;10500132;28;20032;-77
2023/01/14 16:22:33;;;;;;;5.72;5.32;;;;;;;8.64;100.00;99235.59;10481772;28;20036;-78
2023/01/14 16:27:33;;;;;;;6.55;6.07;;;;;;;8.67;100.00;99227.63;10490435;28;20037;-76
2023/01/14 16:32:35;;;;;;;6.20;5.70;;;;;;;8.67;100.00;99224.06;10469881;28;20040;-79
2023/01/14 16:37:35;;;;;;;6.85;6.35;;;;;;;8.75;100.00;99219.91;10500398;28;20028;-76
2023/01/14 16:42:36;;;;;;;6.35;5.95;;;;;;;8.77;100.00;99220.47;10489056;28;20032;-78
2023/01/14 16:47:36;;;;;;;6.70;6.20;;;;;;;8.75;100.00;99195.22;10500924;28;20043;-77
2023/01/14 16:52:37;;;;;;;7.10;6.60;;;;;;;7.81;100.00;99032.28;10479234;28;20495;-69
2023/01/14 16:57:39;;;;;;;7.78;7.03;;;;;;;8.86;100.00;99188.56;10457560;28;21095;-80
2023/01/14 17:02:39;;;;;;;7.10;6.55;;;;;;;8.89;100.00;99180.59;10461622;28;20060;-77
2023/01/14 17:07:43;;;;;;;6.60;6.10;;;;;;;8.93;100.00;99194.56;10465344;28;20532;-76
2023/01/14 17:12:44;;;;;;;6.30;5.90;;;;;;;8.96;100.00;99180.25;10459725;28;20078;-76
2023/01/14 17:17:45;;;;;;;7.65;7.05;;;;;;;8.97;100.00;99181.91;10455850;28;20040;-76
2023/01/14 17:22:45;;;;;;;7.10;6.60;;;;;;;9.03;100.00;99172.53;10454083;28;20146;-77
2023/01/14 17:27:47;;;;;;;6.78;6.25;;;;;;;9.08;100.00;99179.91;10471910;28;20037;-76
2023/01/14 17:32:48;;;;;;;7.22;6.63;;;;;;;9.11;100.00;99173.81;10455187;28;20131;-77
2023/01/14 17:37:50;;;;;;;6.80;6.30;;;;;;;9.19;100.00;99186.13;10457031;28;20033;-77
2023/01/14 17:42:54;;;;;;;7.00;6.40;;;;;;;9.21;100.00;99171.00;10459489;28;20100;-76
2023/01/14 17:47:55;;;;;;;6.90;6.40;;;;;;;9.25;100.00;99171.25;10484122;28;20029;-76
2023/01/14 17:52:55;;;;;;;6.90;6.40;;;;;;;9.30;100.00;99168.44;10476208;28;20045;-76
2023/01/14 17:57:55;;;;;;;7.18;6.57;;;;;;;9.24;100.00;99142.16;10463582;28;20049;-78
2023/01/14 18:02:56;;;;;;;6.32;5.78;;;;;;;9.35;100.00;99168.44;10469223;28;20051;-79
2023/01/14 18:07:57;;;;;;;6.82;6.32;;;;;;;9.39;100.00;99161.25;10464259;28;20047;-79
2023/01/14 18:12:57;;;;;;;6.25;5.85;;;;;;;9.45;100.00;99167.53;10463339;28;20405;-79
2023/01/14 18:17:57;;;;;;;6.18;5.78;;;;;;;9.45;100.00;99162.03;10464517;28;20060;-80
2023/01/14 18:23:00;;;;;;;6.13;5.72;;;;;;;9.51;100.00;99163.63;10462059;28;20044;-77
2023/01/14 18:28:00;;;;;;;5.60;5.30;;;;;;;9.50;100.00;99160.03;10462464;28;20640;-80
2023/01/14 18:33:04;;;;;;;6.38;5.88;;;;;;;9.45;100.00;99142.81;10459687;28;20128;-80
2023/01/14 18:38:04;;;;;;;6.15;5.75;;;;;;;9.56;100.00;99157.25;10445751;28;20037;-82
2023/01/14 18:43:05;;;;;;;6.30;5.90;;;;;;;9.57;100.00;99147.88;10463574;28;20065;-80
2023/01/14 18:48:06;;;;;;;6.05;5.68;;;;;;;9.61;100.00;99155.28;10462557;28;20091;-81
2023/01/14 18:53:06;;;;;;;5.80;5.50;;;;;;;9.67;100.00;99189.00;10462113;28;20044;-79
2023/01/14 18:58:07;;;;;;;6.35;5.95;;;;;;;9.68;100.00;99179.66;10458567;28;20483;-78
2023/01/14 19:03:07;;;;;;;5.95;5.47;;;;;;;9.63;100.00;99187.94;10466828;28;20033;-77
2023/01/14 19:08:08;;;;;;;9.30;8.50;;;;;;;9.54;100.00;99211.66;10478846;28;20045;-77
2023/01/14 19:13:08;;;;;;;17.02;13.23;;;;;;;9.41;100.00;99224.13;10460445;28;20388;-79
2023/01/14 19:18:10;;;;;;;8.95;8.05;;;;;;;9.31;100.00;99226.97;10458517;28;20110;-76
2023/01/14 19:23:10;;;;;;;13.48;6.90;;;;;;;8.77;100.00;99204.00;10460008;28;20492;-77
2023/01/14 19:28:11;;;;;;;7.68;6.93;;;;;;;8.33;100.00;99212.94;10459315;28;20480;-79
2023/01/14 19:33:11;;;;;;;9.48;7.22;;;;;;;8.19;100.00;99220.94;10492116;28;20033;-79
2023/01/14 19:38:12;;;;;;;13.98;7.85;;;;;;;8.10;100.00;99223.41;10500893;28;20032;-78
2023/01/14 19:43:13;;;;;;;10.75;7.95;;;;;;;7.97;100.00;99241.28;10459021;28;20126;-79
2023/01/14 19:48:13;;;;;;;10.07;8.13;;;;;;;7.89;100.00;99263.75;10458227;28;20036;-78
2023/01/14 19:53:14;;;;;;;9.90;7.30;;;;;;;7.79;100.00;99305.69;10459105;28;20065;-78
2023/01/14 19:58:14;;;;;;;7.93;6.85;;;;;;;7.55;100.00;99348.41;10457778;28;20458;-78
2023/01/14 20:03:15;;;;;;;16.35;7.07;;;;;;;6.99;100.00;99368.25;10457096;28;20048;-79
2023/01/14 20:08:15;;;;;;;10.88;6.88;;;;;;;6.76;100.00;99386.75;10458834;28;20041;-75
2023/01/14 20:13:16;;;;;;;10.27;6.20;;;;;;;6.26;100.00;99388.91;10423477;28;20037;-77
2023/01/14 20:18:16;;;;;;;10.18;6.20;;;;;;;6.03;100.00;99420.13;10457557;28;20033;-78
2023/01/14 20:23:17;;;;;;;10.98;6.30;;;;;;;5.98;100.00;99413.81;10457554;28;20040;-79
2023/01/14 20:28:19;;;;;;;6.43;5.43;;;;;;;5.88;100.00;99432.81;10456540;28;20510;-77
2023/01/14 20:33:22;;;;;;;12.20;6.10;;;;;;;5.78;100.00;99447.19;10453161;28;20063;-79
2023/01/14 20:38:23;;;;;;;9.15;6.00;;;;;;;5.77;100.00;99457.28;10468527;28;20549;-79
2023/01/14 20:43:27;;;;;;;11.13;6.13;;;;;;;5.72;100.00;99454.47;10498272;28;20042;-77
2023/01/14 20:48:33;;;;;;;8.02;5.53;;;;;;;5.70;100.00;99433.97;10497857;28;20032;-78
2023/01/14 20:53:33;;;;;;;7.73;5.57;;;;;;;5.60;100.00;99457.38;10497827;28;20063;-78
2023/01/14 21:03:34;;;;;;;6.32;4.88;;;;;;;5.44;100.00;99442.72;10495980;28;20041;-78
2023/01/14 21:08:36;;;;;;;6.82;5.53;;;;;;;5.39;100.00;99439.09;10496852;28;20040;-79
2023/01/14 21:24:15;;;;;;;6.22;4.75;;;;;;;5.26;100.00;99418.50;10456594;28;20101;-79
2023/01/14 21:29:15;;;;;;;7.55;3.88;;;;;;;5.21;100.00;99432.91;10455843;28;20037;-79
2023/01/14 21:34:16;;;;;;;5.07;3.67;;;;;;;5.21;100.00;99413.81;10438369;28;20037;-80
2023/01/14 21:39:16;;;;;;;4.10;3.10;;;;;;;5.07;100.00;99404.38;10475419;28;20044;-79
2023/01/14 21:44:17;;;;;;;3.22;2.90;;;;;;;5.28;100.00;99419.06;10460991;28;20033;-78
2023/01/14 21:49:17;;;;;;;6.60;2.88;;;;;;;5.29;100.00;99417.16;10455235;28;20028;-79
2023/01/14 21:54:18;;;;;;;3.92;2.72;;;;;;;5.29;100.00;99428.88;10481689;28;20353;-78
2023/01/14 21:59:18;;;;;;;5.57;2.92;;;;;;;5.30;100.00;99425.09;10497003;28;20036;-77
2023/01/14 22:04:19;;;;;;;4.35;2.38;;;;;;;5.36;100.00;99421.34;10456454;28;20101;-75
2023/01/14 22:09:20;;;;;;;3.25;2.40;;;;;;;5.35;100.00;99416.94;10453326;28;20485;-78
2023/01/14 22:14:21;;;;;;;9.32;3.33;;;;;;;5.29;100.00;99400.78;10454280;28;20098;-77
2023/01/14 22:19:21;;;;;;;3.05;2.75;;;;;;;5.36;100.00;99417.81;10452011;28;20114;-77
2023/01/14 22:24:22;;;;;;;5.28;2.80;;;;;;;5.39;100.00;99411.81;10453342;28;20048;-76
2023/01/14 22:29:22;;;;;;;2.58;2.35;;;;;;;5.41;100.00;99406.94;10453486;28;20052;-76
2023/01/14 22:34:23;;;;;;;9.38;3.85;;;;;;;5.42;100.00;99428.50;10455360;28;20051;-74
2023/01/14 22:39:23;;;;;;;6.00;3.00;;;;;;;5.42;100.00;99423.06;10481530;28;20044;-85
2023/01/14 22:44:24;;;;;;;7.68;3.13;;;;;;;5.41;100.00;99443.22;10502492;28;20111;-79
2023/01/14 22:49:24;;;;;;;7.20;2.95;;;;;;;5.47;100.00;99438.66;10475999;28;20067;-78
2023/01/14 22:54:25;;;;;;;4.43;2.78;;;;;;;5.49;100.00;99443.88;10459464;28;20040;-78
2023/01/14 22:59:29;;;;;;;8.60;3.40;;;;;;;5.49;100.00;99419.31;10459702;28;20041;-77
2023/01/14 23:04:30;;;;;;;6.47;3.15;;;;;;;5.41;100.00;99426.03;10460264;28;20064;-78
2023/01/14 23:09:30;;;;;;;9.73;3.83;;;;;;;5.46;100.00;99429.66;10459105;28;20063;-79
2023/01/14 23:14:31;;;;;;;9.65;3.17;;;;;;;5.46;100.00;99432.38;10451009;28;20420;-77
2023/01/14 23:19:31;;;;;;;14.80;4.05;;;;;;;5.45;100.00;99438.91;10459300;28;20441;-78
2023/01/14 23:24:37;;;;;;;6.07;3.30;;;;;;;5.07;100.00;99365.34;10442029;28;20045;-78
2023/01/14 23:29:37;;;;;;;4.95;3.53;;;;;;;5.44;100.00;99418.16;10460402;28;20116;-78
2023/01/14 23:34:38;;;;;;;5.18;3.33;;;;;;;5.42;100.00;99423.06;10459750;28;20045;-78
2023/01/14 23:39:38;;;;;;;7.15;3.42;;;;;;;5.44;100.00;99420.06;10479633;28;20048;-78
2023/01/14 23:44:38;;;;;;;9.07;2.95;;;;;;;5.46;100.00;99424.19;10468621;28;20064;-81
2023/01/14 23:49:39;;;;;;;12.77;3.10;;;;;;;5.49;100.00;99416.56;10460895;28;20047;-77
2023/01/14 23:54:39;;;;;;;6.22;2.85;;;;;;;5.45;100.00;99419.78;10457332;28;20056;-78
2023/01/14 23:59:40;;;;;;;10.73;2.92;;;;;;;5.51;100.00;99409.75;10460147;28;20037;-74
